Hauptseite
METAR-TAF:

METAR-TAF

Flughäfen :

MoD Boscombe Down

Boscombe Down, England

Breite: 51-10N, Länge: 001-45W, Höhe: 124 m

Beobachtung

Neuester Wetterbericht von vor 42 Minuten, um 18:50 UTC
Wind 8 kt aus Südwest
Temperatur 15°C
Luftfeuchtigkeit 48%
Luftdruck 1018 hPa
Sichtweite 10 km oder mehr

METAR: EGDM 221850Z AUTO 22008KT 9999 NCD 15/04 Q1018

Zeit: 20:32 (19:32 UTC)

Prognose

Neuester Wetterbericht von vor 5 Stunden und 37 Minuten, um 13:55 UTC
Gültige Prognose vom 22 um 15 UTC bis 22 um 18 UTC
Wind 10 kt aus Süd/Südwest
Sichtweite 10 km oder mehr
keine Wolken unter 1500 m und keine Kumulonimbus oder Gewitterwolken

TAF: EGDM 221355Z 2215/2218 20010KT CAVOK

Wetterbeobachtungen und Prognosen von mehr als 4000 Flughäfen (METAR und TAF Bericht).

Die verfügbaren Stationen werden durch gelbe und rote Markierungen auf der Karte dargestellt.

Führen Sie die Maus auf sie, um den Namen der Station zu sehen.

Darauf klicken, um die Beobachtung von Wetterbeobachtungen und Prognosen zu sehen.

Um die Karte zu ändern : klicken Sie auf den grünen Tasten mit einem schwarzen Kreuz Zum Vergrößern, auf den grünen Button mit einem Gedankenstrich zu verkleinern, oder auf die grünen Pfeile für benachbarte Karten.


METAR-TAF: